CheckWX is a tool to help pilots better visualize weather data.  It is not intended as a substitute for an official pre-flight weather briefing.

13:09:21 UTC

DTTN METAR
Jendouba Airport
Jendouba, Tunisia
Current

1 hour ago

DTTN 181200Z 27002KT CAVOK 13/05 Q1023
Observed
Feb-18 @ 12:00 UTC
Wind
  • 270° at 2 KTS
Visibility
10,000+ meters
Flight Rules
VFR
Cloud Levels
  • Clear skies
Temperature
13°C / 55°F
Dewpoint
C / 41°F
Humidity
59%
Altimeter
30.21" Hg
Pressure
1022.92 hPa
Previous

2 hours ago

DTTN 181100Z 00000KT CAVOK 12/05 Q1024
Observed
Feb-18 @ 11:00 UTC
Visibility
10,000+ meters
Flight Rules
VFR
Cloud Levels
  • Clear skies
Temperature
12°C / 54°F
Dewpoint
C / 41°F
Humidity
63%
Altimeter
30.24" Hg
Pressure
1023.92 hPa
Previous

3 hours ago

DTTN 181000Z 00000KT CAVOK 10/05 Q1024
Observed
Feb-18 @ 10:00 UTC
Visibility
10,000+ meters
Flight Rules
VFR
Cloud Levels
  • Clear skies
Temperature
10°C / 50°F
Dewpoint
C / 41°F
Humidity
71%
Altimeter
30.24" Hg
Pressure
1023.92 hPa